Madison-on-the-Lake, Ohio
Current Conditions -  °F | °C
As of 3:53 AM on Friday 24 Oct 2014 (Local Time) from KHZY Reporting Station
Moderate Fog Moderate Fog  
Wind Chill: 37°   Ceiling: 300
Heat Index: 37°   Visibility: 0.5mi
Dew Point: 36°   Wind: 0mph
Humidity: 96%   Direction: NA
Pressure: 30.08"   Gusts: NA
Location:  41.7879°N, 81.0546°W
Report Text: KHZY 240753Z AUTO 00000KT 1/2SM FG VV003 03/02 A3008 RMK AO2 SLP190 T00280022
Loading
Personal Weather Stations






























Interactive Weather Map
Tropical Storm Tracking
New forecast layout! Learn more

10-Day Weather Forecast

Advertisements
Track Severe Weather on mobile